createdAt,value
2018-03-28T00:02:24.697Z,7.10
2018-03-28T00:04:52.259Z,7.10
2018-03-28T00:07:19.790Z,7.10
2018-03-28T00:09:48.119Z,7.20
2018-03-28T00:12:15.682Z,7.20
2018-03-28T00:14:43.291Z,7.30
2018-03-28T00:17:11.589Z,7.40
2018-03-28T00:19:39.142Z,7.30
2018-03-28T00:22:06.674Z,7.40
2018-03-28T00:24:34.231Z,7.40
2018-03-28T00:27:01.798Z,7.40
2018-03-28T00:29:29.359Z,7.50
2018-03-28T00:31:57.658Z,7.60
2018-03-28T00:34:25.218Z,7.50
2018-03-28T00:36:52.751Z,7.60
2018-03-28T00:39:20.320Z,7.60
2018-03-28T00:41:48.630Z,7.70
2018-03-28T00:44:16.200Z,7.70
2018-03-28T00:46:43.726Z,7.70
2018-03-28T00:49:12.051Z,7.70
2018-03-28T00:51:39.579Z,7.70
2018-03-28T00:54:07.131Z,7.70
2018-03-28T00:56:34.661Z,7.70
2018-03-28T00:59:02.214Z,7.70
2018-03-28T01:01:29.750Z,7.70
2018-03-28T01:03:58.067Z,7.70
2018-03-28T01:06:26.366Z,7.70
2018-03-28T01:08:53.924Z,7.70
2018-03-28T01:11:21.468Z,7.70
2018-03-28T01:13:49.885Z,7.70
2018-03-28T01:16:17.415Z,7.70
2018-03-28T01:18:44.993Z,7.70
2018-03-28T01:21:12.515Z,7.80
2018-03-28T01:23:40.054Z,7.70
2018-03-28T01:26:07.587Z,7.70
2018-03-28T01:28:35.134Z,7.70
2018-03-28T01:31:02.688Z,7.80
2018-03-28T01:33:30.247Z,7.80
2018-03-28T01:35:57.770Z,7.70
2018-03-28T01:38:25.324Z,7.70
2018-03-28T01:40:52.859Z,7.70
2018-03-28T01:43:21.189Z,7.60
2018-03-28T01:45:49.483Z,7.70
2018-03-28T01:48:17.006Z,7.70
2018-03-28T01:50:44.556Z,7.70
2018-03-28T01:53:12.086Z,7.60
2018-03-28T01:55:39.637Z,7.60
2018-03-28T01:58:07.161Z,7.60
2018-03-28T02:00:35.474Z,7.50
2018-03-28T02:03:02.993Z,7.50
2018-03-28T02:05:31.305Z,7.50
2018-03-28T02:07:58.830Z,7.50
2018-03-28T02:10:27.143Z,7.50
2018-03-28T02:12:54.672Z,7.50
2018-03-28T02:15:22.985Z,7.50
2018-03-28T02:17:50.511Z,7.40
2018-03-28T02:20:18.831Z,7.50
2018-03-28T02:22:46.364Z,7.40
2018-03-28T02:25:13.916Z,7.40
2018-03-28T02:27:41.444Z,7.40
2018-03-28T02:30:08.987Z,7.40
2018-03-28T02:32:37.289Z,7.30
2018-03-28T02:35:04.848Z,7.30
2018-03-28T02:37:32.375Z,7.30
2018-03-28T02:39:59.923Z,7.30
2018-03-28T02:42:27.451Z,7.30
2018-03-28T02:44:55.004Z,7.30
2018-03-28T02:47:22.530Z,7.30
2018-03-28T02:49:50.083Z,7.30
2018-03-28T02:52:17.608Z,7.30
2018-03-28T02:54:45.161Z,7.30
2018-03-28T02:57:12.692Z,7.30
2018-03-28T02:59:41.306Z,7.30
2018-03-28T03:02:09.090Z,7.20
2018-03-28T03:04:37.003Z,7.20
2018-03-28T03:07:04.859Z,7.20
2018-03-28T03:09:33.198Z,7.20
2018-03-28T03:12:01.085Z,7.10
2018-03-28T03:14:29.805Z,7.20
2018-03-28T03:16:57.358Z,7.10
2018-03-28T03:19:24.907Z,7.10
2018-03-28T03:21:52.443Z,7.10
2018-03-28T03:24:19.987Z,7.10
2018-03-28T03:26:47.510Z,7.10
2018-03-28T03:29:15.826Z,7.00
2018-03-28T03:31:43.351Z,7.00
2018-03-28T03:34:11.674Z,6.90
2018-03-28T03:36:39.199Z,6.90
2018-03-28T03:39:06.755Z,6.90
2018-03-28T03:41:34.274Z,6.90
2018-03-28T03:44:01.826Z,6.90
2018-03-28T03:46:29.348Z,6.90
2018-03-28T03:48:56.894Z,6.90
2018-03-28T03:51:24.415Z,6.80
2018-03-28T03:53:51.960Z,6.80
2018-03-28T03:56:19.481Z,6.80
2018-03-28T03:58:47.036Z,6.70
2018-03-28T04:01:14.592Z,6.70
2018-03-28T04:03:42.114Z,6.70
2018-03-28T04:06:09.658Z,6.60
2018-03-28T04:08:37.178Z,6.50
2018-03-28T04:11:04.727Z,6.50
2018-03-28T04:13:32.249Z,6.50
2018-03-28T04:15:59.790Z,6.50
2018-03-28T04:18:27.310Z,6.50
2018-03-28T04:20:54.854Z,6.50
2018-03-28T04:23:23.145Z,6.40
2018-03-28T04:25:50.692Z,6.40
2018-03-28T04:28:18.222Z,6.50
2018-03-28T04:30:45.770Z,6.40
2018-03-28T04:33:13.287Z,6.40
2018-03-28T04:35:40.834Z,6.40
2018-03-28T04:38:09.126Z,6.40
2018-03-28T04:40:36.678Z,6.40
2018-03-28T04:43:04.202Z,6.40
2018-03-28T04:45:31.933Z,6.40
2018-03-28T04:47:59.506Z,6.40
2018-03-28T04:50:27.058Z,6.40
2018-03-28T04:52:54.583Z,6.40
2018-03-28T04:55:22.135Z,6.40
2018-03-28T04:57:50.426Z,6.30
2018-03-28T05:00:17.977Z,6.30
2018-03-28T05:02:45.502Z,6.40
2018-03-28T05:05:13.051Z,6.30
2018-03-28T05:07:41.350Z,6.30
2018-03-28T05:10:09.662Z,6.30
2018-03-28T05:12:37.192Z,6.30
2018-03-28T05:15:05.511Z,6.30
2018-03-28T05:17:33.041Z,6.20
2018-03-28T05:20:01.364Z,6.40
2018-03-28T05:22:28.933Z,6.30
2018-03-28T05:24:56.454Z,6.40
2018-03-28T05:27:23.977Z,6.30
2018-03-28T05:29:51.537Z,6.30
2018-03-28T05:32:19.831Z,6.30
2018-03-28T05:34:48.150Z,6.30
2018-03-28T05:37:15.676Z,6.30
2018-03-28T05:39:43.225Z,6.30
2018-03-28T05:42:11.526Z,6.30
2018-03-28T05:44:39.084Z,6.40
2018-03-28T05:47:06.606Z,6.40
2018-03-28T05:49:34.151Z,6.30
2018-03-28T05:52:01.670Z,6.40
2018-03-28T05:54:29.273Z,6.40
2018-03-28T05:56:56.761Z,6.40
2018-03-28T05:59:25.120Z,6.30
2018-03-28T06:01:52.636Z,6.20
2018-03-28T06:04:20.154Z,6.30
2018-03-28T06:06:48.464Z,6.30
2018-03-28T06:09:15.987Z,6.30
2018-03-28T06:11:44.302Z,6.30
2018-03-28T06:14:11.822Z,6.30
2018-03-28T06:16:40.130Z,6.50
2018-03-28T06:19:07.654Z,6.40
2018-03-28T06:21:35.215Z,6.50
2018-03-28T06:24:02.763Z,6.50
2018-03-28T06:26:30.312Z,6.60
2018-03-28T06:28:57.829Z,6.70
2018-03-28T06:31:25.381Z,6.70
2018-03-28T06:55:01.306Z,6.90
2018-03-28T06:57:28.833Z,6.90
2018-03-28T06:59:57.151Z,6.80
2018-03-28T07:02:24.679Z,6.80
2018-03-28T07:04:52.230Z,6.90
2018-03-28T07:07:19.802Z,7.00
2018-03-28T07:09:47.378Z,7.10
2018-03-28T07:12:14.910Z,7.30
2018-03-28T07:14:43.227Z,7.40
2018-03-28T07:17:10.754Z,7.30
2018-03-28T07:19:38.280Z,7.40
2018-03-28T07:22:05.831Z,7.40
2018-03-28T07:24:33.368Z,7.30
2018-03-28T07:27:00.916Z,7.40
2018-03-28T07:29:28.434Z,7.50
2018-03-28T07:31:56.751Z,7.70
2018-03-28T07:34:24.273Z,7.70
2018-03-28T07:36:52.590Z,7.90
2018-03-28T07:39:20.118Z,7.90
2018-03-28T07:41:47.671Z,8.00
2018-03-28T07:44:15.962Z,8.00
2018-03-28T07:46:43.514Z,8.00
2018-03-28T07:49:11.054Z,8.00
2018-03-28T07:51:39.376Z,7.90
2018-03-28T07:54:06.922Z,7.80
2018-03-28T07:56:34.474Z,7.90
2018-03-28T07:59:02.018Z,8.00
2018-03-28T08:01:30.346Z,8.30
2018-03-28T08:03:57.887Z,8.30
2018-03-28T08:06:25.449Z,8.30
2018-03-28T08:08:52.974Z,8.30
2018-03-28T08:11:21.286Z,8.40
2018-03-28T08:13:48.813Z,8.40
2018-03-28T08:16:17.131Z,8.60
2018-03-28T08:18:44.663Z,8.60
2018-03-28T08:21:12.209Z,8.70
2018-03-28T08:23:40.494Z,8.70
2018-03-28T08:26:08.803Z,8.80
2018-03-28T08:28:36.322Z,8.80
2018-03-28T08:31:04.637Z,8.80
2018-03-28T08:33:32.161Z,8.70
2018-03-28T08:36:00.470Z,8.70
2018-03-28T08:38:27.991Z,8.70
2018-03-28T08:40:56.307Z,8.80
2018-03-28T08:43:23.833Z,8.80
2018-03-28T08:45:52.150Z,9.00
2018-03-28T08:48:19.670Z,9.00
2018-03-28T08:50:48.004Z,9.30
2018-03-28T08:53:15.522Z,9.30
2018-03-28T08:55:43.066Z,9.40
2018-03-28T08:58:11.359Z,9.60
2018-03-28T09:00:38.915Z,9.60
2018-03-28T09:03:06.446Z,9.40
2018-03-28T09:05:33.989Z,9.30
2018-03-28T09:08:01.523Z,9.40
2018-03-28T09:10:29.076Z,9.20
2018-03-28T09:12:56.603Z,9.20
2018-03-28T09:15:24.918Z,9.30
2018-03-28T09:17:52.439Z,9.20
2018-03-28T09:20:20.799Z,9.30
2018-03-28T09:22:48.307Z,9.30
2018-03-28T09:25:15.851Z,9.40
2018-03-28T09:27:43.378Z,9.20
2018-03-28T09:30:10.954Z,9.20
2018-03-28T09:32:39.249Z,9.20
2018-03-28T09:35:06.774Z,9.10
2018-03-28T09:37:34.321Z,9.40
2018-03-28T09:40:01.847Z,9.40
2018-03-28T09:42:29.402Z,9.50
2018-03-28T09:44:56.926Z,9.50
2018-03-28T09:47:25.245Z,9.50
2018-03-28T09:49:52.771Z,9.50
2018-03-28T09:52:21.086Z,9.40
2018-03-28T09:54:48.618Z,9.40
2018-03-28T09:57:16.166Z,9.70
2018-03-28T09:59:44.459Z,10.00
2018-03-28T10:02:12.019Z,10.00
2018-03-28T10:04:45.179Z,10.00
2018-03-28T10:07:12.734Z,10.20
2018-03-28T10:09:40.262Z,10.20
2018-03-28T10:12:07.821Z,10.30
2018-03-28T10:14:35.354Z,10.20
2018-03-28T10:17:02.923Z,10.20
2018-03-28T10:19:30.451Z,10.30
2018-03-28T10:21:58.770Z,10.00
2018-03-28T10:24:26.307Z,10.00
2018-03-28T10:26:53.858Z,9.50
2018-03-28T10:29:21.378Z,9.30
2018-03-28T10:31:48.930Z,9.30
2018-03-28T10:34:16.446Z,9.00
2018-03-28T10:36:43.991Z,8.90
2018-03-28T10:39:11.529Z,8.70
2018-03-28T10:41:39.850Z,8.50
2018-03-28T10:44:07.375Z,8.50
2018-03-28T10:46:35.693Z,8.50
2018-03-28T10:49:03.218Z,8.50
2018-03-28T10:51:31.531Z,8.50
2018-03-28T10:53:59.062Z,8.50
2018-03-28T10:56:26.614Z,8.50
2018-03-28T10:58:54.906Z,8.50
2018-03-28T11:01:22.457Z,8.50
2018-03-28T11:03:50.745Z,8.40
2018-03-28T11:06:18.302Z,8.40
2018-03-28T11:08:45.830Z,8.50
2018-03-28T11:11:13.378Z,8.40
2018-03-28T11:13:40.910Z,8.40
2018-03-28T11:16:08.464Z,8.30
2018-03-28T11:18:35.997Z,8.30
2018-03-28T11:21:03.553Z,8.20
2018-03-28T11:23:31.075Z,8.20
2018-03-28T11:25:58.667Z,8.10
2018-03-28T11:28:26.171Z,8.20
2018-03-28T11:30:53.735Z,8.30
2018-03-28T11:33:21.262Z,8.30
2018-03-28T11:35:48.787Z,8.20
2018-03-28T11:38:16.342Z,8.10
2018-03-28T11:40:43.866Z,8.00
2018-03-28T11:43:11.422Z,7.80
2018-03-28T11:45:38.950Z,7.80
2018-03-28T11:48:06.507Z,7.80
2018-03-28T11:50:34.044Z,7.90
2018-03-28T11:53:01.657Z,8.10
2018-03-28T11:55:29.902Z,8.20
2018-03-28T11:57:58.211Z,8.20
2018-03-28T12:00:25.745Z,8.20
2018-03-28T12:02:53.292Z,8.20
2018-03-28T12:05:21.594Z,8.20
2018-03-28T12:07:49.138Z,8.20
2018-03-28T12:10:16.675Z,8.20
2018-03-28T12:12:44.235Z,8.30
2018-03-28T12:15:12.523Z,8.50
2018-03-28T12:17:40.842Z,8.80
2018-03-28T12:20:08.364Z,8.80
2018-03-28T12:22:36.694Z,8.70
2018-03-28T12:25:04.228Z,8.70
2018-03-28T12:27:31.791Z,8.50
2018-03-28T12:29:59.366Z,8.40
2018-03-28T12:32:26.915Z,8.30
2018-03-28T12:34:54.443Z,8.40
2018-03-28T12:37:22.767Z,8.50
2018-03-28T12:39:50.292Z,8.50
2018-03-28T12:42:17.850Z,8.50
2018-03-28T12:44:45.378Z,8.60
2018-03-28T12:47:12.950Z,8.70
2018-03-28T12:49:41.308Z,8.50
2018-03-28T12:52:08.914Z,8.50
2018-03-28T12:54:36.357Z,8.50
2018-03-28T12:57:04.702Z,8.50
2018-03-28T12:59:32.209Z,8.50
2018-03-28T13:01:59.758Z,8.50
2018-03-28T13:04:28.044Z,8.50
2018-03-28T13:06:55.601Z,8.50
2018-03-28T13:09:23.134Z,8.50
2018-03-28T13:11:51.455Z,8.70
2018-03-28T13:14:18.978Z,8.70
2018-03-28T13:16:47.315Z,8.80
2018-03-28T13:19:14.838Z,8.70
2018-03-28T13:21:42.399Z,8.90
2018-03-28T13:24:09.926Z,8.90
2018-03-28T13:26:38.238Z,9.00
2018-03-28T13:29:05.762Z,9.00
2018-03-28T13:31:34.127Z,9.20
2018-03-28T13:34:01.618Z,9.20
2018-03-28T13:36:29.173Z,9.20
2018-03-28T13:38:57.463Z,9.30
2018-03-28T13:41:25.022Z,9.30
2018-03-28T13:43:52.562Z,9.30
2018-03-28T13:46:20.866Z,9.70
2018-03-28T13:48:48.413Z,9.70
2018-03-28T13:51:15.944Z,9.70
2018-03-28T13:53:43.498Z,9.70
2018-03-28T13:56:11.026Z,9.80
2018-03-28T13:58:38.575Z,9.90
2018-03-28T14:01:06.113Z,9.90
2018-03-28T14:03:33.674Z,9.80
2018-03-28T14:06:01.205Z,9.90
2018-03-28T14:08:28.755Z,9.90
2018-03-28T14:10:56.291Z,9.90
2018-03-28T14:13:23.842Z,10.10
2018-03-28T14:15:51.374Z,10.20
2018-03-28T14:18:18.944Z,10.30
2018-03-28T14:20:46.534Z,10.10
2018-03-28T14:23:14.052Z,10.20
2018-03-28T14:25:41.586Z,10.20
2018-03-28T14:28:09.142Z,10.30
2018-03-28T14:30:36.686Z,10.30
2018-03-28T14:33:04.247Z,10.30
2018-03-28T14:35:31.790Z,10.30
2018-03-28T14:37:59.358Z,10.40
2018-03-28T14:40:26.894Z,10.30
2018-03-28T14:42:55.021Z,10.20
2018-03-28T14:45:22.058Z,10.10
2018-03-28T14:47:49.622Z,10.10
2018-03-28T14:50:17.152Z,10.10
2018-03-28T14:52:44.706Z,10.10
2018-03-28T14:55:12.233Z,10.10
2018-03-28T14:57:39.791Z,10.10
2018-03-28T15:00:07.366Z,10.10
2018-03-28T15:02:35.665Z,10.10
2018-03-28T15:05:03.212Z,10.10
2018-03-28T15:07:30.770Z,10.10
2018-03-28T15:09:58.294Z,10.10
2018-03-28T15:12:26.610Z,10.00
2018-03-28T15:14:54.142Z,10.00
2018-03-28T15:17:21.699Z,10.00
2018-03-28T15:19:49.225Z,10.00
2018-03-28T15:22:16.783Z,10.00
2018-03-28T15:24:44.310Z,10.00
2018-03-28T15:27:11.865Z,10.00
2018-03-28T15:29:39.402Z,10.00
2018-03-28T15:32:06.946Z,9.90
2018-03-28T15:34:35.238Z,10.00
2018-03-28T15:37:02.799Z,10.00
2018-03-28T15:39:30.328Z,10.20
2018-03-28T15:41:58.679Z,10.20
2018-03-28T15:44:26.217Z,10.20
2018-03-28T15:46:53.742Z,10.20
2018-03-28T15:49:22.066Z,10.10
2018-03-28T15:51:49.780Z,10.00
2018-03-28T15:54:17.353Z,10.20
2018-03-28T15:56:44.885Z,10.10
2018-03-28T15:59:12.450Z,10.10
2018-03-28T16:01:40.749Z,10.10
2018-03-28T16:04:08.300Z,10.10
2018-03-28T16:06:36.602Z,10.00
2018-03-28T16:09:04.154Z,10.00
2018-03-28T16:11:31.682Z,10.10
2018-03-28T16:14:00.017Z,10.00
2018-03-28T16:16:27.599Z,10.00
2018-03-28T16:18:55.146Z,10.00
2018-03-28T16:21:22.670Z,10.00
2018-03-28T16:23:50.223Z,10.00
2018-03-28T16:26:17.754Z,10.00
2018-03-28T16:28:45.311Z,10.10
2018-03-28T16:31:12.848Z,10.00
2018-03-28T16:33:40.403Z,10.00
2018-03-28T16:36:07.938Z,9.90
2018-03-28T16:38:35.533Z,10.00
2018-03-28T16:41:03.077Z,9.90
2018-03-28T16:43:30.670Z,10.00
2018-03-28T16:45:58.251Z,10.00
2018-03-28T16:48:26.574Z,9.90
2018-03-28T16:50:54.106Z,9.90
2018-03-28T16:53:21.653Z,9.90
2018-03-28T16:55:49.942Z,9.80
2018-03-28T16:58:17.490Z,9.80
2018-03-28T17:00:45.786Z,9.80
2018-03-28T17:03:13.339Z,9.70
2018-03-28T17:05:40.882Z,9.70
2018-03-28T17:08:09.269Z,9.70
2018-03-28T17:10:36.746Z,9.60
2018-03-28T17:13:04.297Z,9.60
2018-03-28T17:15:31.821Z,9.60
2018-03-28T17:17:59.370Z,9.60
2018-03-28T17:20:26.898Z,9.60
2018-03-28T17:22:54.447Z,9.60
2018-03-28T17:25:21.982Z,9.50
2018-03-28T17:27:50.307Z,9.50
2018-03-28T17:30:17.831Z,9.50
2018-03-28T17:32:45.384Z,9.40
2018-03-28T17:35:12.908Z,9.40
2018-03-28T17:37:40.454Z,9.40
2018-03-28T17:40:07.974Z,9.20
2018-03-28T17:42:35.533Z,9.00
2018-03-28T17:45:03.110Z,8.80
2018-03-28T17:47:30.614Z,8.80
2018-03-28T17:49:58.162Z,8.70
2018-03-28T17:52:25.686Z,8.70
2018-03-28T17:54:53.230Z,8.60
2018-03-28T17:57:20.754Z,8.60
2018-03-28T17:59:48.310Z,8.50
2018-03-28T18:02:15.827Z,8.60
2018-03-28T18:04:43.375Z,8.50
2018-03-28T18:07:10.921Z,8.50
2018-03-28T18:09:38.474Z,8.50
2018-03-28T18:12:05.996Z,8.50
2018-03-28T18:14:33.542Z,8.50
2018-03-28T18:17:01.066Z,8.50
2018-03-28T18:19:28.657Z,8.50
2018-03-28T18:21:56.173Z,8.50
2018-03-28T18:24:23.722Z,8.50
2018-03-28T18:26:52.016Z,8.50
2018-03-28T18:29:19.570Z,8.50
2018-03-28T18:31:47.098Z,8.50
2018-03-28T18:34:14.651Z,8.60
2018-03-28T18:36:42.175Z,8.60
2018-03-28T18:39:09.719Z,8.50
2018-03-28T18:41:37.247Z,8.60
2018-03-28T18:44:05.659Z,8.60
2018-03-28T18:46:33.465Z,8.60
2018-03-28T18:49:01.785Z,8.20
2018-03-28T18:51:29.360Z,8.20
2018-03-28T18:53:56.882Z,7.90
2018-03-28T18:56:24.425Z,7.70
2018-03-28T18:58:52.134Z,7.70
2018-03-28T19:01:19.829Z,7.60
2018-03-28T19:03:47.599Z,7.50
2018-03-28T19:06:15.145Z,7.40
2018-03-28T19:08:42.663Z,7.30
2018-03-28T19:11:10.984Z,7.10
2018-03-28T19:13:38.608Z,7.10
2018-03-28T19:16:06.922Z,6.80
2018-03-28T19:18:35.641Z,6.80
2018-03-28T19:21:03.241Z,6.70
2018-03-28T19:23:31.526Z,6.70
2018-03-28T19:25:59.074Z,6.70
2018-03-28T19:28:27.375Z,6.60
2018-03-28T19:30:54.930Z,6.60
2018-03-28T19:33:22.486Z,6.80
2018-03-28T19:35:50.006Z,6.70
2018-03-28T19:38:17.553Z,6.60
2018-03-28T19:40:45.076Z,6.60
2018-03-28T19:43:12.619Z,6.50
2018-03-28T19:45:40.135Z,6.60
2018-03-28T19:48:07.688Z,6.50
2018-03-28T19:50:35.219Z,6.40
2018-03-28T19:53:02.960Z,6.50
2018-03-28T19:55:30.491Z,6.50
2018-03-28T19:57:58.039Z,6.40
2018-03-28T20:00:25.624Z,6.40
2018-03-28T20:02:53.307Z,6.40
2018-03-28T20:05:20.902Z,6.40
2018-03-28T20:07:48.798Z,6.40
2018-03-28T20:10:16.326Z,6.30
2018-03-28T20:12:43.879Z,6.30
2018-03-28T20:15:11.410Z,6.20
2018-03-28T20:17:38.981Z,6.20
2018-03-28T20:20:06.543Z,6.30
2018-03-28T20:22:34.122Z,6.20
2018-03-28T20:25:01.667Z,6.20
2018-03-28T20:27:29.189Z,6.10
2018-03-28T20:29:56.763Z,6.20
2018-03-28T20:32:25.047Z,6.20
2018-03-28T20:34:52.606Z,6.10
2018-03-28T20:37:20.174Z,6.10
2018-03-28T20:39:47.778Z,6.10
2018-03-28T20:42:15.303Z,6.10
2018-03-28T20:44:42.845Z,6.10
2018-03-28T20:47:10.365Z,6.00
2018-03-28T20:49:37.914Z,6.00
2018-03-28T20:52:06.206Z,6.00
2018-03-28T20:54:33.805Z,5.90
2018-03-28T20:57:01.330Z,5.90
2018-03-28T20:59:28.891Z,5.90
2018-03-28T21:01:56.421Z,5.90
2018-03-28T21:04:23.998Z,5.90
2018-03-28T21:06:51.522Z,5.80
2018-03-28T21:09:19.046Z,5.80
2018-03-28T21:11:47.362Z,5.70
2018-03-28T21:14:14.882Z,5.70
2018-03-28T21:16:43.279Z,5.70
2018-03-28T21:19:10.803Z,5.60
2018-03-28T21:21:38.355Z,5.60
2018-03-28T21:24:05.876Z,5.60
2018-03-28T21:26:33.423Z,5.60
2018-03-28T21:29:01.032Z,5.60
2018-03-28T21:31:28.582Z,5.60
2018-03-28T21:33:56.109Z,5.60
2018-03-28T21:36:23.662Z,5.60
2018-03-28T21:38:51.215Z,5.60
2018-03-28T21:41:18.772Z,5.60
2018-03-28T21:43:46.384Z,5.70
2018-03-28T21:46:13.931Z,5.70
2018-03-28T21:48:41.450Z,5.60
2018-03-28T21:51:09.024Z,5.60
2018-03-28T21:53:36.555Z,5.50
2018-03-28T21:56:04.867Z,5.60
2018-03-28T21:58:32.462Z,5.60
2018-03-28T22:01:00.773Z,5.50
2018-03-28T22:03:29.076Z,5.50
2018-03-28T22:05:56.599Z,5.50
2018-03-28T22:08:24.154Z,5.40
2018-03-28T22:10:52.462Z,5.40
2018-03-28T22:13:20.019Z,5.40
2018-03-28T22:15:47.566Z,5.40
2018-03-28T22:18:15.866Z,5.40
2018-03-28T22:20:43.514Z,5.40
2018-03-28T22:23:11.083Z,5.40
2018-03-28T22:25:38.612Z,5.30
2018-03-28T22:28:06.172Z,5.30
2018-03-28T22:30:33.699Z,5.30
2018-03-28T22:33:01.263Z,5.20
2018-03-28T22:35:28.787Z,5.20
2018-03-28T22:37:56.335Z,5.20
2018-03-28T22:40:24.622Z,5.20
2018-03-28T22:42:52.170Z,5.10
2018-03-28T22:45:20.457Z,5.20
2018-03-28T22:47:48.010Z,5.20
2018-03-28T22:50:15.596Z,5.20
2018-03-28T22:52:43.878Z,5.10
2018-03-28T22:55:11.394Z,5.00
2018-03-28T22:57:39.682Z,5.00
2018-03-28T23:00:08.029Z,5.00
2018-03-28T23:02:35.559Z,5.00
2018-03-28T23:05:03.115Z,5.10
2018-03-28T23:07:30.642Z,5.10
2018-03-28T23:09:58.198Z,5.00
2018-03-28T23:12:25.722Z,5.00
2018-03-28T23:14:53.271Z,5.00
2018-03-28T23:17:20.789Z,5.00
2018-03-28T23:19:48.334Z,5.00
2018-03-28T23:22:28.751Z,5.00
2018-03-28T23:24:56.307Z,5.00
2018-03-28T23:27:23.834Z,4.90
2018-03-28T23:29:51.525Z,4.90
2018-03-28T23:32:19.054Z,4.90
2018-03-28T23:34:46.604Z,4.90
2018-03-28T23:37:14.130Z,4.80
2018-03-28T23:39:41.682Z,4.80
2018-03-28T23:42:09.210Z,4.80
2018-03-28T23:44:37.050Z,4.80
2018-03-28T23:47:04.583Z,4.90
2018-03-28T23:49:32.878Z,4.90
2018-03-28T23:52:01.202Z,4.90
2018-03-28T23:54:28.727Z,4.90
2018-03-28T23:56:56.278Z,4.80
2018-03-28T23:59:23.810Z,4.90
